Elrose, Canada
Current Conditions -  °F | °C
As of 4:00 AM on Saturday 22 Nov 2014 (Local Time) from CYKY Reporting Station
Overcast Overcast  
Wind Chill: 19°   Ceiling: 10000
Heat Index: 30°   Visibility: 15mi
Dew Point: 28°   Wind: 16mph
Humidity: 93%   Direction: 100°E
Pressure: 29.3"   Gusts: NA
Location:  51.2°N, 108.03°W
Report Text: CYKY 221000Z 10014KT 15SM SCT048 OVC100 M01/M02 A2930 RMK SC4AC4 SLP945
Loading
Personal Weather Stations






























Interactive Weather Map New forecast layout! Learn more

10-Day Weather Forecast

Advertisements
Track Severe Weather on mobile